createdAt,value
2017-10-25T00:00:31.434Z,96.60
2017-10-25T00:02:57.737Z,96.60
2017-10-25T00:05:24.761Z,96.60
2017-10-25T00:07:51.078Z,96.60
2017-10-25T00:10:17.363Z,96.60
2017-10-25T00:12:43.687Z,96.60
2017-10-25T00:15:09.973Z,96.70
2017-10-25T00:17:36.228Z,96.60
2017-10-25T00:20:03.357Z,96.60
2017-10-25T00:22:30.403Z,96.60
2017-10-25T00:24:56.721Z,96.60
2017-10-25T00:27:23.038Z,96.60
2017-10-25T00:29:49.345Z,96.90
2017-10-25T00:32:15.640Z,96.60
2017-10-25T00:34:41.980Z,96.60
2017-10-25T00:37:08.333Z,96.90
2017-10-25T00:39:34.643Z,96.70
2017-10-25T00:42:00.978Z,96.70
2017-10-25T00:44:27.291Z,96.70
2017-10-25T00:46:53.637Z,96.70
2017-10-25T00:49:19.940Z,96.70
2017-10-25T00:51:46.225Z,96.80
2017-10-25T00:54:12.551Z,96.80
2017-10-25T00:56:38.879Z,96.80
2017-10-25T00:59:05.225Z,96.80
2017-10-25T01:01:31.619Z,96.90
2017-10-25T01:03:57.919Z,96.80
2017-10-25T01:06:24.212Z,96.80
2017-10-25T01:08:50.500Z,96.80
2017-10-25T01:11:16.831Z,96.90
2017-10-25T01:13:43.160Z,96.80
2017-10-25T01:16:09.518Z,96.80
2017-10-25T01:18:36.846Z,96.70
2017-10-25T01:21:03.386Z,96.60
2017-10-25T01:23:30.441Z,96.70
2017-10-25T01:25:57.136Z,96.70
2017-10-25T01:28:23.544Z,96.70
2017-10-25T01:30:50.995Z,96.70
2017-10-25T01:33:18.046Z,96.70
2017-10-25T01:35:45.141Z,96.80
2017-10-25T01:38:11.521Z,96.70
2017-10-25T01:40:38.571Z,96.80
2017-10-25T01:43:05.631Z,96.80
2017-10-25T01:45:31.958Z,96.80
2017-10-25T01:47:58.609Z,96.80
2017-10-25T01:50:24.928Z,96.80
2017-10-25T01:52:51.235Z,97.10
2017-10-25T01:55:17.624Z,96.80
2017-10-25T01:57:43.974Z,96.70
2017-10-25T02:00:10.358Z,96.60
2017-10-25T02:02:36.742Z,96.60
2017-10-25T02:05:03.542Z,96.50
2017-10-25T02:07:30.764Z,96.50
2017-10-25T02:09:57.052Z,96.50
2017-10-25T02:12:23.373Z,96.50
2017-10-25T02:14:49.722Z,96.80
2017-10-25T02:17:16.088Z,96.50
2017-10-25T02:19:42.410Z,96.50
2017-10-25T02:22:08.718Z,96.40
2017-10-25T02:24:35.776Z,96.40
2017-10-25T02:27:02.098Z,96.40
2017-10-25T02:29:29.540Z,96.40
2017-10-25T02:31:56.563Z,96.50
2017-10-25T02:34:22.928Z,96.50
2017-10-25T02:36:50.002Z,96.80
2017-10-25T02:39:16.288Z,96.70
2017-10-25T02:41:42.619Z,96.80
2017-10-25T02:44:09.633Z,96.90
2017-10-25T02:46:36.217Z,97.00
2017-10-25T02:49:02.541Z,97.00
2017-10-25T02:51:29.571Z,97.10
2017-10-25T02:53:56.649Z,97.10
2017-10-25T02:56:22.937Z,97.00
2017-10-25T02:58:50.033Z,97.10
2017-10-25T03:01:16.334Z,97.10
2017-10-25T03:03:43.370Z,97.10
2017-10-25T03:06:10.421Z,97.00
2017-10-25T03:08:37.728Z,97.00
2017-10-25T03:11:03.991Z,97.00
2017-10-25T03:13:31.029Z,97.00
2017-10-25T03:15:58.106Z,97.40
2017-10-25T03:18:24.419Z,97.10
2017-10-25T03:20:50.751Z,97.10
2017-10-25T03:23:17.834Z,97.30
2017-10-25T03:25:44.916Z,97.30
2017-10-25T03:28:11.249Z,97.30
2017-10-25T03:30:37.533Z,97.40
2017-10-25T03:33:03.912Z,97.40
2017-10-25T03:35:30.970Z,97.50
2017-10-25T03:37:58.078Z,97.60
2017-10-25T03:40:24.369Z,97.50
2017-10-25T03:42:50.678Z,97.60
2017-10-25T03:45:16.943Z,97.60
2017-10-25T03:47:43.247Z,97.70
2017-10-25T03:50:09.570Z,97.70
2017-10-25T03:52:36.591Z,97.80
2017-10-25T03:55:02.894Z,97.80
2017-10-25T03:57:29.197Z,97.80
2017-10-25T03:59:55.508Z,97.70
2017-10-25T04:02:21.814Z,97.70
2017-10-25T04:04:48.097Z,99.90
2017-10-25T04:07:14.422Z,98.90
2017-10-25T04:09:40.721Z,98.50
2017-10-25T04:12:07.020Z,98.20
2017-10-25T04:14:34.029Z,96.40
2017-10-25T04:17:00.338Z,96.20
2017-10-25T04:19:26.677Z,95.20
2017-10-25T04:21:52.979Z,94.90
2017-10-25T04:24:19.256Z,94.80
2017-10-25T04:26:45.550Z,94.50
2017-10-25T04:29:11.829Z,94.50
2017-10-25T04:31:38.165Z,94.90
2017-10-25T04:34:04.480Z,92.70
2017-10-25T04:36:30.815Z,92.80
2017-10-25T04:38:57.098Z,92.70
2017-10-25T04:41:23.414Z,92.00
2017-10-25T04:43:49.719Z,91.30
2017-10-25T04:46:16.754Z,88.50
2017-10-25T04:48:43.068Z,88.50
2017-10-25T04:51:09.365Z,86.70
2017-10-25T04:53:35.708Z,86.30
2017-10-25T04:56:02.041Z,85.90
2017-10-25T04:58:28.346Z,84.90
2017-10-25T05:00:54.645Z,84.50
2017-10-25T05:03:20.907Z,84.90
2017-10-25T05:05:47.938Z,86.10
2017-10-25T05:08:14.257Z,86.00
2017-10-25T05:10:40.597Z,86.30
2017-10-25T05:13:06.890Z,85.90
2017-10-25T05:15:33.900Z,86.30
2017-10-25T05:18:00.213Z,86.30
2017-10-25T05:20:26.533Z,86.90
2017-10-25T05:22:52.949Z,87.00
2017-10-25T05:25:19.250Z,88.10
2017-10-25T05:27:46.330Z,90.10
2017-10-25T05:30:12.622Z,90.10
2017-10-25T05:32:38.963Z,90.20
2017-10-25T05:35:05.303Z,89.00
2017-10-25T05:37:31.673Z,88.30
2017-10-25T05:39:58.045Z,88.90
2017-10-25T05:42:25.473Z,89.20
2017-10-25T05:44:52.471Z,89.40
2017-10-25T05:47:18.807Z,88.80
2017-10-25T05:49:45.116Z,89.60
2017-10-25T05:52:11.427Z,89.80
2017-10-25T05:54:39.364Z,90.00
2017-10-25T05:57:05.669Z,90.00
2017-10-25T05:59:31.960Z,91.30
2017-10-25T06:01:58.243Z,91.30
2017-10-25T06:04:24.535Z,90.70
2017-10-25T06:06:51.860Z,90.70
2017-10-25T06:09:18.913Z,90.60
2017-10-25T06:11:45.219Z,90.50
2017-10-25T06:14:11.607Z,90.60
2017-10-25T06:16:37.944Z,90.70
2017-10-25T06:19:04.299Z,91.40
2017-10-25T06:21:31.464Z,91.80
2017-10-25T06:23:58.559Z,92.70
2017-10-25T06:26:24.851Z,92.70
2017-10-25T06:28:51.946Z,93.10
2017-10-25T06:31:18.278Z,93.10
2017-10-25T06:33:44.662Z,93.00
2017-10-25T06:36:10.980Z,93.00
2017-10-25T06:38:38.101Z,93.00
2017-10-25T06:41:05.205Z,93.30
2017-10-25T06:43:31.550Z,93.00
2017-10-25T06:45:57.974Z,93.00
2017-10-25T06:48:24.281Z,93.00
2017-10-25T06:50:50.597Z,93.00
2017-10-25T06:53:17.668Z,92.90
2017-10-25T06:55:43.979Z,92.90
2017-10-25T06:58:10.296Z,93.10
2017-10-25T07:00:37.347Z,93.30
2017-10-25T07:03:03.672Z,93.30
2017-10-25T07:05:30.707Z,93.40
2017-10-25T07:07:58.092Z,93.50
2017-10-25T07:10:24.406Z,93.40
2017-10-25T07:12:51.422Z,93.50
2017-10-25T07:15:17.739Z,93.40
2017-10-25T07:17:44.037Z,92.40
2017-10-25T07:20:10.340Z,90.80
2017-10-25T07:22:36.643Z,90.10
2017-10-25T07:25:02.973Z,90.00
2017-10-25T07:27:30.018Z,91.30
2017-10-25T07:29:56.340Z,91.10
2017-10-25T07:32:22.699Z,91.40
2017-10-25T07:34:49.017Z,91.70
2017-10-25T07:37:16.116Z,91.90
2017-10-25T07:39:42.411Z,91.90
2017-10-25T07:42:08.724Z,91.90
2017-10-25T07:44:35.057Z,91.50
2017-10-25T07:47:01.345Z,90.60
2017-10-25T07:49:27.656Z,90.00
2017-10-25T07:51:53.921Z,89.10
2017-10-25T07:54:20.231Z,88.00
2017-10-25T07:56:46.656Z,87.40
2017-10-25T07:59:12.987Z,87.20
2017-10-25T08:01:39.295Z,86.80
2017-10-25T08:04:05.619Z,86.40
2017-10-25T08:06:31.933Z,86.00
2017-10-25T08:08:58.248Z,85.80
2017-10-25T08:11:24.538Z,85.60
2017-10-25T08:13:50.859Z,85.20
2017-10-25T08:16:17.162Z,83.40
2017-10-25T08:18:43.451Z,84.30
2017-10-25T08:21:10.487Z,82.80
2017-10-25T08:23:38.251Z,82.50
2017-10-25T08:26:04.866Z,82.50
2017-10-25T08:28:31.602Z,81.90
2017-10-25T08:30:57.898Z,81.10
2017-10-25T08:33:24.202Z,80.40
2017-10-25T08:35:50.562Z,80.00
2017-10-25T08:38:16.981Z,79.40
2017-10-25T08:40:43.374Z,79.00
2017-10-25T08:43:09.667Z,78.80
2017-10-25T08:45:35.968Z,77.10
2017-10-25T08:48:02.267Z,76.40
2017-10-25T08:50:28.558Z,76.30
2017-10-25T08:52:54.863Z,76.50
2017-10-25T08:55:21.194Z,76.10
2017-10-25T08:57:47.499Z,75.70
2017-10-25T09:00:13.819Z,75.70
2017-10-25T09:02:40.561Z,75.70
2017-10-25T09:05:06.901Z,75.20
2017-10-25T09:07:33.253Z,75.40
2017-10-25T09:09:59.589Z,75.00
2017-10-25T09:12:25.933Z,75.00
2017-10-25T09:14:52.257Z,74.60
2017-10-25T09:17:18.567Z,74.50
2017-10-25T09:19:45.165Z,74.60
2017-10-25T09:22:11.486Z,74.80
2017-10-25T09:24:37.837Z,73.90
2017-10-25T09:27:04.356Z,73.20
2017-10-25T09:29:30.656Z,72.70
2017-10-25T09:31:56.969Z,72.10
2017-10-25T09:34:23.279Z,71.50
2017-10-25T09:36:49.708Z,71.70
2017-10-25T09:39:16.013Z,72.10
2017-10-25T09:41:42.301Z,71.50
2017-10-25T09:44:08.629Z,71.50
2017-10-25T09:46:34.943Z,71.10
2017-10-25T09:49:01.272Z,70.90
2017-10-25T09:51:27.589Z,70.20
2017-10-25T09:53:53.923Z,69.80
2017-10-25T09:56:20.234Z,68.80
2017-10-25T09:58:46.522Z,69.10
2017-10-25T10:01:14.512Z,69.60
2017-10-25T10:03:41.728Z,69.60
2017-10-25T10:06:08.805Z,69.50
2017-10-25T10:08:35.186Z,69.40
2017-10-25T10:11:01.615Z,69.30
2017-10-25T10:13:28.651Z,68.00
2017-10-25T10:15:55.238Z,68.00
2017-10-25T10:18:21.532Z,67.40
2017-10-25T10:20:48.577Z,66.00
2017-10-25T10:23:14.903Z,66.00
2017-10-25T10:25:41.225Z,66.80
2017-10-25T10:28:07.553Z,66.80
2017-10-25T10:30:33.862Z,66.20
2017-10-25T10:33:00.211Z,66.30
2017-10-25T10:35:26.537Z,66.10
2017-10-25T10:37:52.970Z,65.70
2017-10-25T10:40:19.325Z,66.90
2017-10-25T10:42:46.372Z,66.10
2017-10-25T10:45:12.690Z,66.10
2017-10-25T10:47:39.725Z,65.60
2017-10-25T10:50:06.018Z,65.60
2017-10-25T10:52:32.308Z,66.00
2017-10-25T10:54:59.379Z,65.20
2017-10-25T10:57:25.664Z,65.20
2017-10-25T10:59:51.977Z,65.30
2017-10-25T11:02:18.270Z,65.30
2017-10-25T11:04:44.611Z,64.70
2017-10-25T11:07:11.215Z,63.80
2017-10-25T11:09:37.516Z,62.70
2017-10-25T11:12:03.825Z,62.10
2017-10-25T11:14:30.153Z,61.60
2017-10-25T11:16:56.584Z,61.50
2017-10-25T11:19:22.933Z,61.80
2017-10-25T11:21:49.974Z,60.40
2017-10-25T11:24:16.277Z,60.40
2017-10-25T11:26:42.580Z,60.50
2017-10-25T11:29:09.226Z,60.70
2017-10-25T11:31:36.290Z,60.80
2017-10-25T11:34:02.850Z,61.30
2017-10-25T11:36:29.181Z,61.30
2017-10-25T11:38:56.476Z,62.40
2017-10-25T11:41:22.822Z,61.40
2017-10-25T11:43:49.142Z,61.60
2017-10-25T11:46:16.628Z,61.80
2017-10-25T11:48:42.948Z,61.20
2017-10-25T11:51:10.051Z,60.40
2017-10-25T11:53:36.804Z,60.30
2017-10-25T11:56:03.136Z,60.30
2017-10-25T11:58:29.500Z,59.40
2017-10-25T12:00:56.894Z,60.00
2017-10-25T12:03:23.389Z,59.90
2017-10-25T12:05:49.685Z,58.50
2017-10-25T12:08:16.482Z,58.10
2017-10-25T12:10:42.937Z,57.30
2017-10-25T12:13:09.235Z,57.50
2017-10-25T12:15:36.294Z,57.60
2017-10-25T12:18:02.747Z,57.50
2017-10-25T12:20:28.974Z,57.50
2017-10-25T12:22:55.465Z,57.40
2017-10-25T12:25:22.528Z,57.90
2017-10-25T12:27:48.831Z,57.80
2017-10-25T12:30:15.488Z,57.60
2017-10-25T12:32:42.500Z,58.60
2017-10-25T12:35:08.946Z,58.60
2017-10-25T12:37:35.350Z,58.90
2017-10-25T12:40:01.628Z,58.30
2017-10-25T12:42:28.141Z,57.50
2017-10-25T12:44:55.810Z,58.10
2017-10-25T12:47:22.153Z,58.10
2017-10-25T12:49:48.594Z,58.90
2017-10-25T12:52:14.942Z,59.00
2017-10-25T12:54:41.280Z,59.70
2017-10-25T12:57:07.581Z,60.10
2017-10-25T12:59:33.899Z,58.50
2017-10-25T13:02:00.193Z,58.60
2017-10-25T13:04:26.491Z,59.00
2017-10-25T13:06:52.792Z,58.40
2017-10-25T13:09:19.124Z,58.40
2017-10-25T13:12:07.073Z,59.10
2017-10-25T13:15:11.559Z,57.60
2017-10-25T13:17:45.706Z,58.50
2017-10-25T13:20:12.003Z,58.50
2017-10-25T13:22:39.036Z,58.90
2017-10-25T13:25:06.091Z,58.50
2017-10-25T13:27:33.127Z,58.50
2017-10-25T13:29:59.448Z,58.30
2017-10-25T13:32:25.850Z,58.10
2017-10-25T13:34:52.170Z,58.40
2017-10-25T13:37:18.582Z,58.70
2017-10-25T13:39:44.903Z,59.50
2017-10-25T13:42:11.266Z,59.40
2017-10-25T13:44:37.572Z,59.60
2017-10-25T13:47:04.152Z,60.00
2017-10-25T13:49:31.596Z,59.80
2017-10-25T13:51:57.920Z,59.70
2017-10-25T13:54:24.274Z,59.70
2017-10-25T13:56:50.584Z,60.60
2017-10-25T13:59:16.965Z,60.60
2017-10-25T14:01:43.621Z,60.90
2017-10-25T14:04:09.936Z,61.10
2017-10-25T14:06:36.231Z,61.70
2017-10-25T14:09:03.348Z,63.10
2017-10-25T14:11:29.656Z,63.00
2017-10-25T14:13:55.946Z,62.70
2017-10-25T14:16:23.002Z,61.90
2017-10-25T14:18:49.323Z,61.80
2017-10-25T14:21:16.416Z,59.40
2017-10-25T14:23:42.743Z,59.30
2017-10-25T14:26:09.182Z,59.20
2017-10-25T14:28:48.016Z,58.80
2017-10-25T14:31:14.314Z,59.20
2017-10-25T14:33:40.642Z,59.70
2017-10-25T14:36:06.983Z,59.20
2017-10-25T14:38:33.715Z,58.50
2017-10-25T14:41:00.429Z,58.00
2017-10-25T14:43:26.747Z,57.70
2017-10-25T14:45:53.858Z,56.60
2017-10-25T14:48:20.158Z,56.50
2017-10-25T14:50:46.495Z,56.20
2017-10-25T14:53:12.771Z,56.20
2017-10-25T14:55:40.090Z,57.60
2017-10-25T14:58:06.400Z,57.60
2017-10-25T15:00:32.757Z,58.50
2017-10-25T15:02:59.073Z,59.20
2017-10-25T15:05:25.421Z,60.00
2017-10-25T15:07:51.719Z,61.30
2017-10-25T15:10:18.022Z,62.40
2017-10-25T15:12:45.079Z,62.80
2017-10-25T15:15:11.396Z,62.70
2017-10-25T15:17:37.684Z,63.60
2017-10-25T15:20:03.998Z,65.10
2017-10-25T15:22:30.322Z,66.20
2017-10-25T15:24:56.626Z,67.20
2017-10-25T15:27:23.356Z,68.40
2017-10-25T15:29:49.703Z,69.70
2017-10-25T15:32:16.017Z,70.90
2017-10-25T15:34:42.994Z,71.80
2017-10-25T15:37:09.438Z,72.30
2017-10-25T15:39:35.754Z,72.90
2017-10-25T15:42:02.055Z,74.40
2017-10-25T15:44:28.367Z,74.80
2017-10-25T15:46:54.738Z,75.80
2017-10-25T15:49:21.040Z,76.80
2017-10-25T15:51:47.368Z,77.70
2017-10-25T15:54:13.732Z,78.40
2017-10-25T15:56:39.989Z,78.90
2017-10-25T15:59:07.048Z,79.80
2017-10-25T16:01:33.367Z,79.80
2017-10-25T16:03:59.699Z,80.20
2017-10-25T16:06:26.021Z,80.80
2017-10-25T16:08:52.355Z,81.20
2017-10-25T16:11:18.730Z,81.70
2017-10-25T16:14:02.724Z,82.20
2017-10-25T16:16:29.826Z,84.40
2017-10-25T16:18:56.121Z,84.20
2017-10-25T16:21:22.478Z,85.10
2017-10-25T16:26:48.476Z,86.70
2017-10-25T16:29:14.785Z,87.60
2017-10-25T16:31:41.855Z,88.90
2017-10-25T16:34:08.151Z,88.90
2017-10-25T16:36:35.367Z,90.10
2017-10-25T16:39:01.765Z,90.00
2017-10-25T16:41:28.180Z,90.30
2017-10-25T16:43:54.593Z,90.50
2017-10-25T16:46:21.662Z,91.00
2017-10-25T16:48:48.024Z,91.00
2017-10-25T16:51:14.364Z,91.20
2017-10-25T16:53:40.668Z,91.40
2017-10-25T16:56:07.068Z,91.60
2017-10-25T16:58:34.139Z,92.10
2017-10-25T17:01:01.221Z,92.20
2017-10-25T17:03:27.551Z,92.10
2017-10-25T17:05:53.887Z,92.30
2017-10-25T17:08:20.229Z,92.40
2017-10-25T17:10:47.302Z,92.70
2017-10-25T17:13:13.605Z,92.60
2017-10-25T17:15:39.918Z,92.70
2017-10-25T17:18:06.219Z,92.80
2017-10-25T17:20:32.592Z,93.00
2017-10-25T17:22:58.933Z,93.00
2017-10-25T17:25:26.038Z,93.30
2017-10-25T17:27:52.444Z,93.30
2017-10-25T17:30:18.763Z,93.40
2017-10-25T17:32:45.126Z,93.40
2017-10-25T17:35:11.489Z,93.50
2017-10-25T17:37:38.634Z,93.70
2017-10-25T17:40:04.941Z,93.60
2017-10-25T17:42:31.354Z,93.70
2017-10-25T17:57:10.361Z,94.40
2017-10-25T17:59:37.416Z,94.50
2017-10-25T18:02:04.875Z,94.40
2017-10-25T18:04:31.154Z,94.30
2017-10-25T18:06:57.476Z,94.40
2017-10-25T18:09:25.945Z,94.50
2017-10-25T18:11:53.517Z,94.60
2017-10-25T18:14:19.843Z,94.70
2017-10-25T18:16:46.216Z,94.80
2017-10-25T18:19:12.519Z,94.80
2017-10-25T18:21:39.631Z,95.10
2017-10-25T18:24:06.299Z,95.10
2017-10-25T18:26:32.689Z,95.20
2017-10-25T18:28:59.044Z,95.30
2017-10-25T18:31:26.098Z,95.40
2017-10-25T18:33:53.143Z,95.40
2017-10-25T18:36:20.248Z,95.50
2017-10-25T18:38:46.656Z,95.50
2017-10-25T18:41:13.023Z,95.50
2017-10-25T18:43:39.346Z,95.60
2017-10-25T18:46:05.647Z,95.60
2017-10-25T18:48:31.967Z,95.60
2017-10-25T18:50:58.281Z,95.60
2017-10-25T18:53:24.566Z,95.60
2017-10-25T18:55:50.885Z,95.70
2017-10-25T18:58:17.244Z,95.80
2017-10-25T19:00:43.606Z,95.90
2017-10-25T19:03:09.980Z,95.90
2017-10-25T19:05:36.306Z,95.90
2017-10-25T19:08:02.655Z,96.00
2017-10-25T19:10:28.979Z,96.10
2017-10-25T19:12:55.342Z,96.10
2017-10-25T19:15:22.404Z,96.10
2017-10-25T19:17:49.581Z,96.10
2017-10-25T19:20:15.963Z,96.10
2017-10-25T19:22:42.298Z,96.10
2017-10-25T19:25:09.367Z,96.30
2017-10-25T19:27:36.414Z,96.40
2017-10-25T19:30:03.482Z,96.40
2017-10-25T19:32:29.777Z,96.40
2017-10-25T19:34:56.100Z,96.40
2017-10-25T19:37:23.134Z,96.60
2017-10-25T19:39:49.465Z,96.50
2017-10-25T19:42:15.787Z,96.60
2017-10-25T19:44:42.148Z,96.60
2017-10-25T19:47:09.200Z,96.50
2017-10-25T19:49:36.278Z,96.60
2017-10-25T19:52:02.609Z,96.50
2017-10-25T19:54:29.006Z,96.60
2017-10-25T19:56:56.081Z,96.60
2017-10-25T19:59:22.351Z,96.60
2017-10-25T20:01:48.642Z,96.60
2017-10-25T20:04:14.938Z,96.60
2017-10-25T20:06:41.255Z,96.60
2017-10-25T20:09:08.309Z,96.60
2017-10-25T20:11:34.627Z,96.60
2017-10-25T20:14:00.928Z,96.60
2017-10-25T20:16:27.233Z,96.80
2017-10-25T20:18:53.536Z,96.90
2017-10-25T20:21:20.588Z,96.90
2017-10-25T20:23:47.666Z,96.90
2017-10-25T20:26:13.975Z,96.90
2017-10-25T20:28:40.327Z,96.90
2017-10-25T20:31:06.664Z,96.80
2017-10-25T20:33:32.959Z,96.90
2017-10-25T20:36:00.003Z,97.00
2017-10-25T20:38:27.019Z,97.00
2017-10-25T20:40:53.322Z,97.00
2017-10-25T20:43:20.663Z,97.00
2017-10-25T20:45:46.926Z,97.00
2017-10-25T20:48:13.212Z,97.10
2017-10-25T20:50:39.570Z,97.20
2017-10-25T20:53:05.843Z,97.30
2017-10-25T20:55:32.115Z,97.30
2017-10-25T20:57:58.387Z,97.40
2017-10-25T21:00:24.669Z,97.50
2017-10-25T21:02:50.968Z,97.60
2017-10-25T21:05:17.987Z,97.60
2017-10-25T21:07:44.250Z,97.60
2017-10-25T21:10:11.557Z,97.70
2017-10-25T21:12:37.807Z,97.70
2017-10-25T21:15:04.088Z,97.90
2017-10-25T21:17:30.368Z,98.00
2017-10-25T21:19:56.617Z,98.10
2017-10-25T21:22:23.637Z,98.10
2017-10-25T21:24:49.894Z,98.10
2017-10-25T21:27:16.897Z,98.10
2017-10-25T21:29:43.161Z,98.40
2017-10-25T21:32:10.181Z,98.20
2017-10-25T21:34:36.566Z,98.20
2017-10-25T21:37:02.876Z,98.20
2017-10-25T21:39:29.942Z,98.20
2017-10-25T21:41:56.210Z,98.20
2017-10-25T21:44:22.477Z,98.20
2017-10-25T21:46:48.747Z,98.20
2017-10-25T21:49:15.030Z,98.10
2017-10-25T21:51:41.277Z,98.20
2017-10-25T21:54:08.281Z,98.30
2017-10-25T21:56:34.542Z,98.30
2017-10-25T21:59:00.808Z,98.40
2017-10-25T22:01:27.055Z,98.40
2017-10-25T22:03:53.329Z,98.40
2017-10-25T22:06:20.354Z,98.50
2017-10-25T22:08:46.888Z,98.50
2017-10-25T22:11:13.138Z,98.50
2017-10-25T22:13:40.113Z,98.60
2017-10-25T22:16:06.359Z,98.60
2017-10-25T22:18:32.618Z,98.60
2017-10-25T22:20:58.866Z,98.60
2017-10-25T22:23:25.728Z,98.50
2017-10-25T22:25:52.749Z,98.40
2017-10-25T22:28:18.994Z,98.40
2017-10-25T22:30:45.995Z,98.50
2017-10-25T22:33:12.269Z,98.50
2017-10-25T22:35:39.621Z,98.60
2017-10-25T22:38:06.608Z,98.70
2017-10-25T22:40:32.865Z,98.70
2017-10-25T22:42:59.239Z,98.70
2017-10-25T22:45:25.548Z,98.80
2017-10-25T22:47:51.795Z,98.80
2017-10-25T22:50:18.770Z,98.80
2017-10-25T22:52:45.033Z,98.80
2017-10-25T22:55:11.283Z,98.80
2017-10-25T22:57:38.286Z,99.10
2017-10-25T23:00:04.561Z,98.70
2017-10-25T23:02:30.867Z,98.70
2017-10-25T23:04:57.108Z,99.30
2017-10-25T23:07:23.385Z,99.40
2017-10-25T23:09:49.664Z,99.00
2017-10-25T23:12:15.925Z,99.40
2017-10-25T23:14:42.205Z,99.20
2017-10-25T23:17:08.459Z,98.90
2017-10-25T23:19:34.716Z,99.30
2017-10-25T23:22:00.949Z,99.60
2017-10-25T23:24:27.237Z,99.40
2017-10-25T23:26:53.483Z,99.30
2017-10-25T23:29:20.472Z,99.20
2017-10-25T23:31:46.704Z,99.20
2017-10-25T23:34:12.954Z,99.10
2017-10-25T23:36:39.202Z,99.00
2017-10-25T23:39:05.448Z,99.00
2017-10-25T23:41:32.418Z,99.10
2017-10-25T23:43:58.651Z,99.00
2017-10-25T23:46:24.912Z,99.00
2017-10-25T23:48:51.186Z,98.90
2017-10-25T23:51:18.193Z,99.00
2017-10-25T23:53:44.426Z,99.00
2017-10-25T23:56:10.680Z,99.00
2017-10-25T23:58:37.664Z,98.90
